Time;durP1;ratioP1;P1;durP2;ratioP2;P2;SDS_P1;SDS_P2;PMS_P1;PMS_P2;Temp;Humidity;BMP_temperature;BMP_pressure;BME280_temperature;BME280_humidity;BME280_pressure;Samples;Min_cycle;Max_cycle;Signal;HPM_P1;HPM_P2
2021/09/26 00:01:38;;;;;;;;;;;;;;;22.43;56.28;101751.78;5094233;28;19928;-67
2021/09/26 00:04:05;;;;;;;;;;;;;;;22.40;56.50;101752.06;5094482;28;19924;-66
2021/09/26 00:06:32;;;;;;;;;;;;;;;22.37;56.32;101740.81;5094140;28;19928;-66
2021/09/26 00:08:58;;;;;;;;;;;;;;;22.32;56.63;101747.38;5093644;28;19931;-69
2021/09/26 00:11:25;;;;;;;;;;;;;;;22.29;56.75;101753.00;5094186;28;20417;-68
2021/09/26 00:13:51;;;;;;;;;;;;;;;22.26;56.58;101755.97;5094387;28;20330;-66
2021/09/26 00:16:18;;;;;;;;;;;;;;;22.26;57.02;101753.28;5093885;28;19932;-66
2021/09/26 00:18:45;;;;;;;;;;;;;;;22.23;56.81;101761.56;5093972;28;19971;-70
2021/09/26 00:21:11;;;;;;;;;;;;;;;22.22;56.88;101765.25;5093979;28;19924;-67
2021/09/26 00:23:38;;;;;;;;;;;;;;;22.17;56.88;101767.50;5093822;28;19924;-73
2021/09/26 00:26:05;;;;;;;;;;;;;;;22.18;56.91;101771.84;5093392;28;19924;-73
2021/09/26 00:28:32;;;;;;;;;;;;;;;22.14;57.09;101770.44;5093894;28;19932;-73
2021/09/26 00:30:58;;;;;;;;;;;;;;;22.10;57.43;101763.69;5093922;28;19958;-65
2021/09/26 00:33:25;;;;;;;;;;;;;;;22.08;57.39;101771.84;5093660;28;19978;-66
2021/09/26 00:35:52;;;;;;;;;;;;;;;22.10;57.37;101767.19;5093584;28;19924;-73
2021/09/26 00:38:19;;;;;;;;;;;;;;;22.04;57.59;101772.25;5093580;28;19928;-73
2021/09/26 00:40:49;;;;;;;;;;;;;;;21.98;57.31;101760.28;5093137;28;19974;-65
2021/09/26 00:43:17;;;;;;;;;;;;;;;21.98;57.87;101760.28;5093575;28;19925;-65
2021/09/26 00:45:44;;;;;;;;;;;;;;;21.95;57.60;101763.22;5093606;28;19928;-66
2021/09/26 00:48:10;;;;;;;;;;;;;;;21.93;57.93;101763.38;5093552;28;19928;-66
2021/09/26 00:50:38;;;;;;;;;;;;;;;21.89;57.74;101767.31;5093426;28;20299;-72
2021/09/26 00:53:04;;;;;;;;;;;;;;;21.87;57.91;101766.56;5091639;28;19975;-65
2021/09/26 00:55:31;;;;;;;;;;;;;;;21.85;58.04;101765.84;5093190;28;19928;-73
2021/09/26 00:57:58;;;;;;;;;;;;;;;21.86;57.89;101756.88;5091775;28;20367;-65
2021/09/26 01:00:26;;;;;;;;;;;;;;;21.87;58.03;101763.91;5093243;28;20434;-66
2021/09/26 01:02:53;;;;;;;;;;;;;;;21.83;58.08;101755.31;5092141;28;20300;-66
2021/09/26 01:05:20;;;;;;;;;;;;;;;21.80;58.01;101763.59;5093115;28;19924;-66
2021/09/26 01:07:51;;;;;;;;;;;;;;;21.80;58.07;101752.91;5093481;28;19924;-69
2021/09/26 01:10:20;;;;;;;;;;;;;;;21.77;58.41;101747.00;5093275;28;20382;-69
2021/09/26 01:12:47;;;;;;;;;;;;;;;21.74;58.37;101745.44;5092785;28;19928;-72
2021/09/26 01:15:44;;;;;;;;;;;;;;;21.73;58.20;101743.75;5093173;28;19924;-72
2021/09/26 01:18:13;;;;;;;;;;;;;;;21.71;58.52;101740.34;5092900;28;20380;-66
2021/09/26 01:20:40;;;;;;;;;;;;;;;21.69;58.45;101753.84;5093028;28;19978;-73
2021/09/26 01:23:26;;;;;;;;;;;;;;;21.71;58.33;101758.22;5093066;28;19924;-68
2021/09/26 01:26:11;;;;;;;;;;;;;;;21.71;58.24;101766.25;5091889;28;20407;-71
2021/09/26 01:28:42;;;;;;;;;;;;;;;21.66;58.44;101763.97;5092358;28;19973;-66
2021/09/26 01:31:11;;;;;;;;;;;;;;;21.64;58.33;101771.28;5092931;28;19946;-66
2021/09/26 01:33:41;;;;;;;;;;;;;;;21.63;58.49;101772.25;5092775;28;19938;-73
2021/09/26 01:36:28;;;;;;;;;;;;;;;21.62;58.44;101778.56;5092717;28;19928;-66
2021/09/26 01:39:01;;;;;;;;;;;;;;;21.58;58.54;101780.66;5081587;28;19925;-66
2021/09/26 01:41:31;;;;;;;;;;;;;;;21.59;58.68;101773.50;5092757;28;19993;-66
2021/09/26 01:43:59;;;;;;;;;;;;;;;21.57;58.53;101768.28;5092916;28;19927;-66
2021/09/26 01:46:32;;;;;;;;;;;;;;;21.58;58.26;101767.31;5092184;28;19957;-65
2021/09/26 01:49:05;;;;;;;;;;;;;;;21.54;58.57;101758.69;5092758;28;20281;-67
2021/09/26 01:51:34;;;;;;;;;;;;;;;21.54;58.49;101756.00;5092650;28;19924;-66
2021/09/26 01:54:01;;;;;;;;;;;;;;;21.54;58.48;101761.34;5092920;28;19985;-73
2021/09/26 01:56:29;;;;;;;;;;;;;;;21.54;58.46;101763.19;5092204;28;19924;-69
2021/09/26 01:58:56;;;;;;;;;;;;;;;21.53;58.61;101770.38;5092749;28;19924;-73
2021/09/26 02:01:23;;;;;;;;;;;;;;;21.52;58.65;101767.81;5092002;28;20001;-73
2021/09/26 02:03:50;;;;;;;;;;;;;;;21.52;58.18;101766.00;5095069;28;19970;-66
2021/09/26 02:06:17;;;;;;;;;;;;;;;21.51;58.64;101760.81;5096615;28;19924;-65
2021/09/26 02:08:43;;;;;;;;;;;;;;;21.51;58.28;101761.63;5096638;28;19928;-65
2021/09/26 02:11:12;;;;;;;;;;;;;;;21.49;58.66;101765.41;5096447;28;19938;-67
2021/09/26 02:13:40;;;;;;;;;;;;;;;21.46;58.83;101755.03;5096368;28;19932;-70
2021/09/26 02:16:08;;;;;;;;;;;;;;;21.47;58.79;101752.22;5096443;28;19969;-66
2021/09/26 02:18:35;;;;;;;;;;;;;;;21.46;58.51;101761.19;5095777;28;19928;-65
2021/09/26 02:21:01;;;;;;;;;;;;;;;21.47;58.59;101756.69;5096327;28;19954;-65
2021/09/26 02:23:28;;;;;;;;;;;;;;;21.42;58.50;101756.25;5096294;28;19928;-65
2021/09/26 02:25:55;;;;;;;;;;;;;;;21.42;58.77;101757.09;5096330;28;19924;-65
2021/09/26 02:28:22;;;;;;;;;;;;;;;21.40;58.92;101758.22;5096220;28;19928;-66
2021/09/26 02:30:49;;;;;;;;;;;;;;;21.37;58.88;101754.81;5096106;28;19981;-73
2021/09/26 02:33:16;;;;;;;;;;;;;;;21.35;58.70;101759.44;5096093;28;20277;-66
2021/09/26 02:35:42;;;;;;;;;;;;;;;21.37;58.96;101751.31;5095536;28;19924;-66
2021/09/26 02:38:09;;;;;;;;;;;;;;;21.33;58.83;101748.06;5095835;28;19953;-65
2021/09/26 02:40:36;;;;;;;;;;;;;;;21.30;59.01;101742.13;5095912;28;19928;-72
2021/09/26 02:43:21;;;;;;;;;;;;;;;21.25;58.97;101736.34;5095817;28;20338;-72
2021/09/26 02:45:51;;;;;;;;;;;;;;;21.24;58.91;101727.47;5095913;28;19924;-69
2021/09/26 02:48:19;;;;;;;;;;;;;;;21.21;58.98;101719.75;5095764;28;19928;-66
2021/09/26 02:50:47;;;;;;;;;;;;;;;21.20;59.30;101726.06;5095845;28;19925;-66
2021/09/26 02:53:14;;;;;;;;;;;;;;;21.20;58.87;101731.41;5095152;28;19970;-67
2021/09/26 02:55:41;;;;;;;;;;;;;;;21.20;59.05;101736.75;5095541;28;19928;-65
2021/09/26 02:58:08;;;;;;;;;;;;;;;21.20;59.32;101736.75;5095575;28;19969;-66
2021/09/26 03:00:36;;;;;;;;;;;;;;;21.16;59.04;101740.66;5095427;28;19928;-66
2021/09/26 03:03:14;;;;;;;;;;;;;;;21.14;59.28;101738.13;5092095;28;19932;-72
2021/09/26 03:05:41;;;;;;;;;;;;;;;21.12;59.48;101728.56;5092138;28;19971;-65
2021/09/26 03:08:08;;;;;;;;;;;;;;;21.09;59.56;101732.34;5091898;28;19928;-66
2021/09/26 03:10:35;;;;;;;;;;;;;;;21.08;59.50;101729.78;5092295;28;20501;-71
2021/09/26 03:13:02;;;;;;;;;;;;;;;21.07;59.51;101726.28;5091933;28;19924;-66
2021/09/26 03:15:29;;;;;;;;;;;;;;;21.06;59.16;101737.09;5090641;28;19928;-66
2021/09/26 03:17:56;;;;;;;;;;;;;;;21.01;59.40;101740.16;5091846;28;19954;-65
2021/09/26 03:20:22;;;;;;;;;;;;;;;20.99;59.51;101728.78;5091954;28;19928;-72
2021/09/26 03:22:50;;;;;;;;;;;;;;;20.97;59.84;101726.22;5091761;28;20430;-66
2021/09/26 03:25:17;;;;;;;;;;;;;;;20.98;59.41;101729.75;5091115;28;19924;-66
2021/09/26 03:27:44;;;;;;;;;;;;;;;20.94;59.43;101726.50;5091828;28;19928;-66
2021/09/26 03:30:10;;;;;;;;;;;;;;;20.93;59.46;101729.28;5091781;28;19924;-66
2021/09/26 03:32:37;;;;;;;;;;;;;;;20.88;59.41;101727.00;5091606;28;19977;-65
2021/09/26 03:35:04;;;;;;;;;;;;;;;20.85;59.42;101729.97;5091730;28;19923;-66
2021/09/26 03:37:31;;;;;;;;;;;;;;;20.85;59.60;101730.78;5091226;28;19924;-66
2021/09/26 03:39:57;;;;;;;;;;;;;;;20.83;59.78;101723.88;5090707;28;19965;-65
2021/09/26 03:42:23;;;;;;;;;;;;;;;20.80;59.57;101735.66;5091319;28;19924;-66
2021/09/26 03:44:50;;;;;;;;;;;;;;;20.83;59.56;101746.06;5091268;28;19924;-66
2021/09/26 03:47:16;;;;;;;;;;;;;;;20.85;59.56;101732.63;5091414;28;19974;-66
2021/09/26 03:49:43;;;;;;;;;;;;;;;20.85;59.32;101735.28;5091280;28;19966;-66
2021/09/26 03:52:09;;;;;;;;;;;;;;;20.85;59.55;101740.63;5091282;28;19924;-66
2021/09/26 03:54:36;;;;;;;;;;;;;;;20.87;59.34;101730.66;5091340;28;19975;-65
2021/09/26 03:57:02;;;;;;;;;;;;;;;20.85;59.46;101740.63;5090230;28;19924;-65
2021/09/26 03:59:29;;;;;;;;;;;;;;;20.85;59.38;101751.28;5091116;28;19977;-65
2021/09/26 04:01:55;;;;;;;;;;;;;;;20.82;59.39;101744.41;5091057;28;19978;-65
2021/09/26 04:04:22;;;;;;;;;;;;;;;20.81;59.40;101736.50;5090997;28;20342;-66
2021/09/26 04:06:49;;;;;;;;;;;;;;;20.77;59.58;101727.91;5091234;28;19924;-66
2021/09/26 04:09:15;;;;;;;;;;;;;;;20.71;59.80;101726.63;5091048;28;20376;-66
2021/09/26 04:11:43;;;;;;;;;;;;;;;20.70;59.56;101713.38;5090894;28;19932;-65
2021/09/26 04:14:10;;;;;;;;;;;;;;;20.66;59.75;101712.78;5090004;28;19931;-65
2021/09/26 04:16:36;;;;;;;;;;;;;;;20.63;59.58;101715.72;5090885;28;19928;-67
2021/09/26 04:19:03;;;;;;;;;;;;;;;20.64;59.60;101709.41;5091096;28;19928;-66
2021/09/26 04:21:30;;;;;;;;;;;;;;;20.62;59.81;101707.84;5090638;28;19924;-65
2021/09/26 04:23:56;;;;;;;;;;;;;;;20.60;59.49;101704.47;5090704;28;19967;-66
2021/09/26 04:26:22;;;;;;;;;;;;;;;20.58;59.95;101707.25;5090274;28;19977;-66
2021/09/26 04:28:49;;;;;;;;;;;;;;;20.55;59.70;101707.50;5089920;28;19998;-66
2021/09/26 04:31:15;;;;;;;;;;;;;;;20.55;59.66;101712.84;5090358;28;19924;-66
2021/09/26 04:33:42;;;;;;;;;;;;;;;20.52;60.05;101711.28;5090298;28;19924;-65
2021/09/26 04:36:09;;;;;;;;;;;;;;;20.52;59.99;101724.63;5090541;28;19928;-66
2021/09/26 04:38:35;;;;;;;;;;;;;;;20.52;59.78;101715.78;5090208;28;19977;-66
2021/09/26 04:41:02;;;;;;;;;;;;;;;20.48;59.76;101711.66;5090529;28;19924;-66
2021/09/26 04:43:28;;;;;;;;;;;;;;;20.52;59.72;101715.78;5090369;28;19996;-66
2021/09/26 04:45:54;;;;;;;;;;;;;;;20.50;60.07;101707.06;5089815;28;19924;-65
2021/09/26 04:48:21;;;;;;;;;;;;;;;20.48;59.78;101714.31;5089939;28;20368;-65
2021/09/26 04:50:47;;;;;;;;;;;;;;;20.47;60.01;101715.31;5069651;28;20372;-66
2021/09/26 04:53:14;;;;;;;;;;;;;;;20.46;59.79;101713.63;5069915;28;20339;-65
2021/09/26 04:55:41;;;;;;;;;;;;;;;20.45;60.10;101712.75;5069558;28;20446;-65
2021/09/26 04:58:10;;;;;;;;;;;;;;;20.45;60.03;101710.09;5069690;28;19925;-65
2021/09/26 05:00:36;;;;;;;;;;;;;;;20.42;60.04;101713.03;5074178;28;19989;-65
2021/09/26 05:03:03;;;;;;;;;;;;;;;20.42;60.22;101714.84;5089968;28;19931;-66
2021/09/26 05:05:30;;;;;;;;;;;;;;;20.39;60.06;101719.47;5089323;28;19924;-66
2021/09/26 05:07:57;;;;;;;;;;;;;;;20.41;59.92;101727.34;5069643;28;19928;-65
2021/09/26 05:10:23;;;;;;;;;;;;;;;20.40;60.02;101722.97;5069471;28;20365;-66
2021/09/26 05:12:50;;;;;;;;;;;;;;;20.39;60.01;101723.94;5069897;28;19970;-66
2021/09/26 05:15:17;;;;;;;;;;;;;;;20.37;59.96;101724.06;5069391;28;20014;-66
2021/09/26 05:17:43;;;;;;;;;;;;;;;20.37;59.90;101721.41;5075222;28;19928;-65
2021/09/26 05:20:10;;;;;;;;;;;;;;;20.37;60.16;101726.72;5089948;28;19928;-67
2021/09/26 05:22:36;;;;;;;;;;;;;;;20.36;60.16;101740.19;5089770;28;19924;-65
2021/09/26 05:25:03;;;;;;;;;;;;;;;20.32;59.95;101750.25;5080361;28;20797;-65
2021/09/26 05:27:30;;;;;;;;;;;;;;;20.33;59.86;101753.78;5069595;28;19963;-66
2021/09/26 05:29:57;;;;;;;;;;;;;;;20.30;60.03;101762.88;5069566;28;19972;-66
2021/09/26 05:32:23;;;;;;;;;;;;;;;20.19;60.51;101765.59;5069294;28;19931;-65
2021/09/26 05:34:50;;;;;;;;;;;;;;;20.19;60.49;101763.75;5088613;28;20388;-67
2021/09/26 05:37:20;;;;;;;;;;;;;;;20.28;60.11;101761.28;5089438;28;19924;-65
2021/09/26 05:39:52;;;;;;;;;;;;;;;20.33;60.25;101772.44;5093429;28;19924;-65
2021/09/26 05:42:19;;;;;;;;;;;;;;;20.33;60.25;101781.28;5093631;28;19931;-68
2021/09/26 05:44:45;;;;;;;;;;;;;;;20.33;59.94;101772.44;5093767;28;19979;-73
2021/09/26 05:47:14;;;;;;;;;;;;;;;20.34;60.24;101767.00;5093765;28;19928;-67
2021/09/26 05:49:41;;;;;;;;;;;;;;;20.39;60.20;101764.78;5093779;28;19924;-66
2021/09/26 05:52:08;;;;;;;;;;;;;;;20.43;59.92;101759.19;5093061;28;19924;-65
2021/09/26 05:54:38;;;;;;;;;;;;;;;20.48;59.85;101751.66;5093668;28;19977;-65
2021/09/26 05:57:06;;;;;;;;;;;;;;;20.50;59.67;101750.56;5093566;28;20300;-71
2021/09/26 05:59:38;;;;;;;;;;;;;;;20.50;59.49;101745.22;5093529;28;19931;-66
2021/09/26 06:02:10;;;;;;;;;;;;;;;20.52;59.49;101745.94;5093714;28;19931;-65
2021/09/26 06:04:37;;;;;;;;;;;;;;;20.58;59.51;101739.25;5093125;28;20034;-66
2021/09/26 06:07:04;;;;;;;;;;;;;;;20.61;59.41;101723.00;5093233;28;20322;-66
2021/09/26 06:09:30;;;;;;;;;;;;;;;20.61;59.66;101717.66;5093092;28;19931;-70
2021/09/26 06:11:57;;;;;;;;;;;;;;;20.63;59.41;101709.53;5093242;28;19924;-66
2021/09/26 06:14:23;;;;;;;;;;;;;;;20.69;59.56;101707.19;5093102;28;19928;-66
2021/09/26 06:16:50;;;;;;;;;;;;;;;20.73;59.05;101707.81;5093076;28;19969;-66
2021/09/26 06:19:16;;;;;;;;;;;;;;;20.76;59.31;101717.38;5093137;28;19974;-70
2021/09/26 06:21:43;;;;;;;;;;;;;;;20.81;59.20;101716.03;5092224;28;20422;-66
2021/09/26 06:24:12;;;;;;;;;;;;;;;20.84;59.11;101712.25;5093067;28;19928;-65
2021/09/26 06:26:39;;;;;;;;;;;;;;;20.88;58.79;101693.16;5092956;28;20334;-66
2021/09/26 06:29:06;;;;;;;;;;;;;;;20.91;58.64;101694.72;5092966;28;19924;-66
2021/09/26 06:31:32;;;;;;;;;;;;;;;20.94;58.83;101689.13;5092917;28;19924;-65
2021/09/26 06:33:59;;;;;;;;;;;;;;;20.97;58.65;101690.69;5093066;28;19928;-67
2021/09/26 06:36:25;;;;;;;;;;;;;;;21.03;58.42;101691.00;5093001;28;19928;-65
2021/09/26 06:38:52;;;;;;;;;;;;;;;21.08;58.30;101689.75;5092212;28;19982;-66
2021/09/26 06:41:19;;;;;;;;;;;;;;;21.12;58.34;101696.53;5092465;28;19924;-73
2021/09/26 06:43:46;;;;;;;;;;;;;;;21.24;57.90;101705.28;5092835;28;19928;-66
2021/09/26 06:46:12;;;;;;;;;;;;;;;21.34;57.67;101712.38;5093002;28;19924;-65
2021/09/26 06:48:39;;;;;;;;;;;;;;;21.46;57.55;101728.31;5092499;28;19994;-65
2021/09/26 06:51:06;;;;;;;;;;;;;;;21.57;57.52;101733.56;5092273;28;19943;-66
2021/09/26 06:53:32;;;;;;;;;;;;;;;21.72;56.73;101738.56;5092307;28;19953;-66
2021/09/26 06:55:59;;;;;;;;;;;;;;;21.80;56.64;101739.56;5092192;28;20372;-65
2021/09/26 06:58:25;;;;;;;;;;;;;;;21.91;56.34;101733.25;5091482;28;20388;-72
2021/09/26 07:00:52;;;;;;;;;;;;;;;22.02;56.20;101730.47;5092356;28;19924;-68
2021/09/26 07:03:18;;;;;;;;;;;;;;;22.13;56.04;101742.00;5092073;28;19954;-68
2021/09/26 07:05:45;;;;;;;;;;;;;;;22.22;55.91;101741.19;5092021;28;19967;-72
2021/09/26 07:08:11;;;;;;;;;;;;;;;22.30;55.31;101751.19;5091891;28;19924;-65
2021/09/26 07:10:38;;;;;;;;;;;;;;;22.38;55.38;101756.69;5092206;28;19928;-64
2021/09/26 07:13:04;;;;;;;;;;;;;;;22.39;55.44;101758.41;5091385;28;19924;-65
2021/09/26 07:15:31;;;;;;;;;;;;;;;22.48;55.31;101757.53;5091353;28;19924;-63
2021/09/26 07:17:58;;;;;;;;;;;;;;;22.57;55.13;101749.69;5089900;28;19924;-62
2021/09/26 07:20:29;;;;;;;;;;;;;;;22.68;54.98;101754.88;5091326;28;20376;-63
2021/09/26 07:22:56;;;;;;;;;;;;;;;22.82;54.84;101764.31;5091142;28;20473;-64
2021/09/26 07:25:23;;;;;;;;;;;;;;;22.93;54.49;101752.59;5091163;28;19924;-68
2021/09/26 07:27:49;;;;;;;;;;;;;;;23.05;54.29;101747.94;5091039;28;19927;-62
2021/09/26 07:30:16;;;;;;;;;;;;;;;23.16;54.04;101745.13;5090399;28;20372;-62
2021/09/26 07:32:43;;;;;;;;;;;;;;;23.27;53.97;101758.34;5089337;28;19924;-63
2021/09/26 07:35:09;;;;;;;;;;;;;;;23.41;53.40;101775.75;5091139;28;20002;-63
2021/09/26 07:37:36;;;;;;;;;;;;;;;23.56;53.43;101776.13;5090721;28;19925;-62
2021/09/26 07:40:03;;;;;;;;;;;;;;;23.69;53.10;101777.63;5090533;28;19996;-62
2021/09/26 07:42:29;;;;;;;;;;;;;;;23.87;52.83;101785.72;5091037;28;20380;-63
2021/09/26 07:45:06;;;;;;;;;;;;;;;24.01;52.56;101790.63;5090586;28;19924;-62
2021/09/26 07:47:33;;;;;;;;;;;;;;;24.22;51.96;101787.66;5087418;28;20346;-63
2021/09/26 07:50:00;;;;;;;;;;;;;;;24.41;51.68;101794.72;5090699;28;19928;-64
2021/09/26 07:52:27;;;;;;;;;;;;;;;24.58;51.45;101785.00;5090017;28;20449;-63
2021/09/26 07:54:56;;;;;;;;;;;;;;;24.70;51.39;101788.31;5089917;28;19924;-63
2021/09/26 07:57:23;;;;;;;;;;;;;;;24.64;51.45;101785.38;5089898;28;19954;-63
2021/09/26 07:59:50;;;;;;;;;;;;;;;24.48;51.86;101773.50;5089909;28;20445;-64
2021/09/26 08:02:17;;;;;;;;;;;;;;;24.32;52.49;101773.34;5089540;28;19925;-62
2021/09/26 08:04:44;;;;;;;;;;;;;;;24.22;52.72;101771.56;5089327;28;19928;-63
2021/09/26 08:07:10;;;;;;;;;;;;;;;24.18;52.63;101761.31;5088360;28;20486;-64
2021/09/26 08:09:39;;;;;;;;;;;;;;;24.10;52.86;101762.91;5088927;28;19924;-64
2021/09/26 08:12:06;;;;;;;;;;;;;;;23.96;53.32;101761.56;5090097;28;19924;-63
2021/09/26 08:14:32;;;;;;;;;;;;;;;23.76;53.80;101763.47;5089763;28;19928;-63
2021/09/26 08:17:00;;;;;;;;;;;;;;;23.59;54.11;101759.75;5090197;28;19924;-63
2021/09/26 08:19:26;;;;;;;;;;;;;;;23.46;54.53;101761.91;5090346;28;20380;-63
2021/09/26 08:21:53;;;;;;;;;;;;;;;23.38;54.79;101780.56;5089994;28;19924;-63
2021/09/26 08:24:20;;;;;;;;;;;;;;;23.29;54.94;101777.75;5090272;28;19928;-65
2021/09/26 08:26:46;;;;;;;;;;;;;;;23.23;54.99;101777.50;5090164;28;19935;-64
2021/09/26 08:29:13;;;;;;;;;;;;;;;23.18;55.21;101782.47;5089753;28;19924;-63
2021/09/26 08:31:39;;;;;;;;;;;;;;;23.11;55.67;101788.34;5089953;28;20376;-63
2021/09/26 08:34:06;;;;;;;;;;;;;;;23.06;55.60;101801.31;5088231;28;19978;-64
2021/09/26 08:36:32;;;;;;;;;;;;;;;22.98;55.90;101795.81;5086194;28;20273;-62
2021/09/26 08:38:59;;;;;;;;;;;;;;;22.93;56.20;101798.94;5087235;28;19928;-63
2021/09/26 08:41:26;;;;;;;;;;;;;;;22.90;56.67;101793.88;5090023;28;19954;-64
2021/09/26 08:43:53;;;;;;;;;;;;;;;22.85;57.11;101776.56;5089954;28;19924;-64
2021/09/26 08:46:20;;;;;;;;;;;;;;;22.75;57.48;101773.88;5087269;28;19985;-61
2021/09/26 08:48:46;;;;;;;;;;;;;;;22.69;57.95;101767.28;5089533;28;20550;-62
2021/09/26 08:51:13;;;;;;;;;;;;;;;22.64;58.35;101774.88;5089628;28;19931;-62
2021/09/26 08:53:39;;;;;;;;;;;;;;;22.63;59.05;101775.88;5088813;28;19977;-62
2021/09/26 08:56:06;;;;;;;;;;;;;;;22.60;59.44;101766.31;5089368;28;19924;-61
2021/09/26 08:58:32;;;;;;;;;;;;;;;22.57;59.35;101758.53;5089531;28;19924;-61
2021/09/26 09:01:00;;;;;;;;;;;;;;;22.54;59.93;101756.16;5089876;28;19924;-63
2021/09/26 09:03:29;;;;;;;;;;;;;;;22.53;60.02;101767.00;5089332;28;19932;-62
2021/09/26 09:05:56;;;;;;;;;;;;;;;22.54;60.47;101795.41;5089437;28;19924;-63
2021/09/26 09:08:24;;;;;;;;;;;;;;;22.55;60.31;101789.94;5088666;28;19985;-62
2021/09/26 09:10:53;;;;;;;;;;;;;;;22.56;60.57;101777.41;5089340;28;19950;-62
2021/09/26 09:13:19;;;;;;;;;;;;;;;22.50;61.07;101771.63;5088163;28;19932;-62
2021/09/26 09:15:54;;;;;;;;;;;;;;;22.46;61.39;101764.03;5089128;28;20377;-60
2021/09/26 09:18:21;;;;;;;;;;;;;;;22.44;61.59;101763.34;5088841;28;20034;-62
2021/09/26 09:20:47;;;;;;;;;;;;;;;22.48;61.68;101775.44;5087371;28;20036;-61
2021/09/26 09:23:17;;;;;;;;;;;;;;;22.48;62.00;101780.78;5089167;28;20348;-62
2021/09/26 09:25:45;;;;;;;;;;;;;;;22.51;62.17;101783.16;5088315;28;19932;-63
2021/09/26 09:28:12;;;;;;;;;;;;;;;22.55;62.47;101802.47;5088898;28;19928;-61
2021/09/26 09:30:46;;;;;;;;;;;;;;;22.61;62.38;101801.91;5088478;28;19968;-62
2021/09/26 09:33:12;;;;;;;;;;;;;;;22.66;62.30;101800.53;5088926;28;20323;-63
2021/09/26 09:35:41;;;;;;;;;;;;;;;22.64;62.83;101807.00;5089116;28;20346;-65
2021/09/26 09:38:07;;;;;;;;;;;;;;;22.65;63.24;101793.47;5088857;28;20388;-70
2021/09/26 09:40:35;;;;;;;;;;;;;;;22.64;63.29;101788.28;5088398;28;19981;-63
2021/09/26 09:43:01;;;;;;;;;;;;;;;22.60;63.18;101781.47;5089203;28;19963;-66
2021/09/26 09:45:30;;;;;;;;;;;;;;;22.57;63.17;101782.63;5088987;28;19924;-63
2021/09/26 09:48:02;;;;;;;;;;;;;;;22.55;63.32;101795.31;5084204;28;20048;-64
2021/09/26 09:50:41;;;;;;;;;;;;;;;22.52;63.93;101792.06;5069396;28;20381;-68
2021/09/26 09:53:17;;;;;;;;;;;;;;;22.49;64.15;101785.16;5069223;28;19970;-65
2021/09/26 09:55:44;;;;;;;;;;;;;;;22.45;64.39;101778.41;5069019;28;19932;-70
2021/09/26 09:58:17;;;;;;;;;;;;;;;22.40;64.72;101769.94;5084365;28;19924;-62
2021/09/26 10:00:52;;;;;;;;;;;;;;;22.37;65.03;101762.19;5089242;28;19928;-63
2021/09/26 10:03:37;;;;;;;;;;;;;;;22.33;65.24;101746.41;5088815;28;19924;-62
2021/09/26 10:06:24;;;;;;;;;;;;;;;22.28;65.46;101734.44;5089125;28;19928;-63
2021/09/26 10:08:55;;;;;;;;;;;;;;;22.24;65.46;101725.84;5085313;28;19931;-65
2021/09/26 10:11:23;;;;;;;;;;;;;;;22.21;65.43;101711.91;5089073;28;20277;-64
2021/09/26 10:13:50;;;;;;;;;;;;;;;22.17;65.44;101706.84;5088316;28;19932;-62
2021/09/26 10:16:18;;;;;;;;;;;;;;;22.12;65.73;101708.25;5088481;28;19943;-62
2021/09/26 10:18:44;;;;;;;;;;;;;;;22.10;65.78;101726.25;5088836;28;19924;-68
2021/09/26 10:21:12;;;;;;;;;;;;;;;22.07;66.16;101748.75;5088994;28;19970;-63
2021/09/26 10:23:40;;;;;;;;;;;;;;;22.06;65.98;101775.63;5089472;28;20177;-63
2021/09/26 10:26:07;;;;;;;;;;;;;;;22.04;66.20;101794.47;5091884;28;19932;-65
2021/09/26 10:28:34;;;;;;;;;;;;;;;22.00;66.67;101785.91;5080762;28;20498;-66
2021/09/26 10:31:03;;;;;;;;;;;;;;;22.00;66.41;101782.34;5092661;28;20281;-63
2021/09/26 10:33:30;;;;;;;;;;;;;;;21.98;66.72;101779.84;5076706;28;19958;-67
2021/09/26 10:35:57;;;;;;;;;;;;;;;21.96;66.97;101765.75;5086903;28;19928;-63
2021/09/26 10:38:24;;;;;;;;;;;;;;;21.97;66.89;101759.44;5091874;28;19924;-63
2021/09/26 10:40:51;;;;;;;;;;;;;;;21.96;67.21;101773.75;5092326;28;19963;-66
2021/09/26 10:43:19;;;;;;;;;;;;;;;21.94;67.40;101770.41;5092196;28;19924;-69
2021/09/26 10:45:47;;;;;;;;;;;;;;;21.93;67.49;101768.72;5092031;28;20226;-69
2021/09/26 10:48:14;;;;;;;;;;;;;;;21.92;67.82;101761.66;5091994;28;19931;-67
2021/09/26 10:50:41;;;;;;;;;;;;;;;21.89;68.30;101740.56;5092435;28;20388;-66
2021/09/26 10:53:13;;;;;;;;;;;;;;;21.87;68.17;101733.69;5091572;28;19924;-63
2021/09/26 10:55:40;;;;;;;;;;;;;;;21.85;68.75;101733.78;5092343;28;19924;-64
2021/09/26 10:58:06;;;;;;;;;;;;;;;21.85;68.52;101737.31;5092323;28;19947;-64
2021/09/26 11:00:39;;;;;;;;;;;;;;;21.84;68.59;101743.66;5092075;28;19924;-65
2021/09/26 11:03:07;;;;;;;;;;;;;;;21.74;68.73;101765.97;5092015;28;19928;-69
2021/09/26 11:05:34;;;;;;;;;;;;;;;21.67;69.19;101758.50;5090778;28;19932;-66
2021/09/26 11:08:02;;;;;;;;;;;;;;;21.72;68.89;101762.59;5088658;28;20233;-63
2021/09/26 11:10:33;;;;;;;;;;;;;;;21.72;69.13;101757.25;5091212;28;19927;-63
2021/09/26 11:13:06;;;;;;;;;;;;;;;21.72;69.31;101746.56;5091270;28;20441;-63
2021/09/26 11:15:33;;;;;;;;;;;;;;;21.71;69.34;101723.50;5091333;28;19970;-64
2021/09/26 11:17:59;;;;;;;;;;;;;;;21.71;69.34;101712.81;5091703;28;19964;-62
2021/09/26 11:20:26;;;;;;;;;;;;;;;21.68;69.80;101689.88;5091024;28;19973;-61
2021/09/26 11:23:08;;;;;;;;;;;;;;;21.66;70.03;101674.00;5090499;28;20018;-61
2021/09/26 11:25:53;;;;;;;;;;;;;;;21.64;70.03;101664.44;5091506;28;19935;-65
2021/09/26 11:28:36;;;;;;;;;;;;;;;21.64;70.11;101681.28;5091535;28;19927;-62
2021/09/26 11:31:09;;;;;;;;;;;;;;;21.63;70.31;101684.94;5091152;28;19989;-63
2021/09/26 11:33:52;;;;;;;;;;;;;;;21.61;70.25;101681.59;5077355;28;20009;-63
2021/09/26 11:36:20;;;;;;;;;;;;;;;21.61;70.24;101686.94;5073580;28;19924;-63
2021/09/26 11:38:46;;;;;;;;;;;;;;;21.59;70.52;101704.06;5077330;28;20458;-63
2021/09/26 11:41:13;;;;;;;;;;;;;;;21.56;70.45;101729.22;5085511;28;19993;-63
2021/09/26 11:43:44;;;;;;;;;;;;;;;21.52;70.64;101736.63;5083023;28;19977;-62
2021/09/26 11:46:28;;;;;;;;;;;;;;;21.47;70.97;101721.97;5090962;28;20430;-61
2021/09/26 11:48:59;;;;;;;;;;;;;;;21.51;70.98;101720.75;5091001;28;19940;-62
2021/09/26 11:51:25;;;;;;;;;;;;;;;21.49;71.06;101704.81;5076061;28;20380;-62
2021/09/26 11:53:52;;;;;;;;;;;;;;;21.50;71.06;101678.97;5077010;28;19924;-65
2021/09/26 11:56:20;;;;;;;;;;;;;;;21.50;71.18;101671.81;5089520;28;19969;-62
2021/09/26 11:58:50;;;;;;;;;;;;;;;21.48;71.25;101670.25;5090897;28;19924;-63
2021/09/26 12:01:25;;;;;;;;;;;;;;;21.47;71.30;101668.56;5090570;28;20372;-62
2021/09/26 12:04:07;;;;;;;;;;;;;;;21.47;71.40;101655.22;5091003;28;20464;-63
2021/09/26 12:06:34;;;;;;;;;;;;;;;21.46;71.49;101642.84;5090452;28;20536;-61
2021/09/26 12:09:01;;;;;;;;;;;;;;;21.43;71.75;101640.44;5090891;28;19977;-64
2021/09/26 12:11:27;;;;;;;;;;;;;;;21.31;71.79;101629.88;5090110;28;19971;-68
2021/09/26 12:13:54;;;;;;;;;;;;;;;;;;5090596;28;19924;-62
2021/09/26 12:16:21;;;;;;;;;;;;;;;21.39;71.99;101620.34;5090479;28;19977;-62
2021/09/26 12:18:49;;;;;;;;;;;;;;;21.37;71.93;101610.63;5091026;28;20388;-61
2021/09/26 12:21:16;;;;;;;;;;;;;;;21.37;71.82;101599.97;5090492;28;19924;-62
2021/09/26 12:23:51;;;;;;;;;;;;;;;21.35;71.93;101593.06;5090654;28;19977;-62
2021/09/26 12:26:19;;;;;;;;;;;;;;;21.35;72.26;101582.38;5090572;28;20380;-63
2021/09/26 12:28:57;;;;;;;;;;;;;;;21.31;72.12;101563.13;5089874;28;19928;-67
2021/09/26 12:31:26;;;;;;;;;;;;;;;21.31;72.47;101530.25;5090719;28;19928;-62
2021/09/26 12:33:54;;;;;;;;;;;;;;;21.26;72.17;101498.63;5089756;28;20461;-63
2021/09/26 12:36:21;;;;;;;;;;;;;;;21.21;72.17;101467.00;5076803;28;19931;-62
2021/09/26 12:38:56;;;;;;;;;;;;;;;21.19;72.29;101460.97;5073958;28;20435;-62
2021/09/26 12:41:32;;;;;;;;;;;;;;;21.14;72.63;101467.69;5072750;28;19932;-63
2021/09/26 12:44:02;;;;;;;;;;;;;;;21.12;72.59;101464.34;5088437;28;20305;-62